Rushville, IL

11:37 AM CDT on May 22, 2017 (GMT -0500)
Camden | | Change Station
Active Advisory: Flood Warning

Elev 592 ft 40.15 °N, 90.77 °W | Updated 4 seconds ago

Clear
Clear
72.1 °F
Feels Like 77 °F
N
8.9
Wind Variable Wind from WSW
Gusts 15.0 mph

Today
High -- | Low -- °F
--% Chance of Precip.
Yesterday
High -- | Low -- °F
Precip. -- in
Pressure 30.03 in
Visibility 10.0 miles
Clouds Clear
Heat Index 77 °F
Dew Point 51 °F
Humidity 48%
Rainfall 0.00 in
Snow Depth Not available.
5:40 AM 8:17 PM
Waning Crescent, 14% visible
METAR KMQB 221615Z AUTO 22018KT 10SM CLR 21/11 A3003 RMK AO2 T02100107
Pressure 30.03 in
Visibility 10.0 miles
Clouds Clear
Heat Index 77 °F
Dew Point 51 °F
Humidity 48%
Rainfall 0.00 in
Snow Depth Not available.
5:40 AM 8:17 PM
Waning Crescent, 14% visible
METAR KMQB 221615Z AUTO 22018KT 10SM CLR 21/11 A3003 RMK AO2 T02100107

Get Your Daily Forecast Email!

Thanks for signing up!

Be on the lookout for a verification email in your inbox.

You'll start receiving severe weather alerts in your inbox..

×

10-Day Weather Forecast

Almanac

Astronomy

May. 22, 2017 Rise Set
Actual Time
Civil Twilight
Nautical Twilight
Astronomical Twilight
Moon
Length of Visible Light
Length of Day
Tomorrow will be .
, % of the Moon is Illuminated

Today's Extremes

State Highs State Lows

Community

WunderPhotos

Category 6

Welcome to Category 6. This is the collective home for Weather Underground's featured writeups by Dr. Jeff Masters (right), Bob Henson (left), Chris Burt, and other regular contributors.

Nearby

Air Quality

  Air Quality AQ Index Pollutant
Not available.

Snow Depth

Station Depth Elevation

Earthquake Activity

City Distance Mag. Time & Date
Minimum magnitude displayed is 2.5.

Coastal Water Temperatures

Place Temperature

Stations

Nearby Weather Stations

Station Location Temp. Windchill Dew Point Humidity Wind Precip. Elev Updated Type
                   

Watches & Warnings

Flood Warning
Issued: 11:17 AM CDT May. 22, 2017 – National Weather Service

The Flood Warning continues for
the Illinois River at Beardstown.
* Until further notice.
* At 945 am Monday the stage was 22.2 feet.
* Flood stage is 14.0 feet.
* Moderate flooding is occurring and moderate flooding is forecast.
* Forecast... the river will continue to fall to a stage of 22.1 feet
by tomorrow morning.



                  Fld observed forecast 6am
location stg stg day time Tue Wed Thu

Illinois River
Beardstown 14 22.2 Mon 10 am 22.1 22.0 21.8



Lat... Lon 4018 9023 4012 9017 4008 9037 3999 9046
      3999 9058 4015 9043


25